Time;durP1;ratioP1;P1;durP2;ratioP2;P2;SDS_P1;SDS_P2;PMS_P1;PMS_P2;Temp;Humidity;BMP_temperature;BMP_pressure;BME280_temperature;BME280_humidity;BME280_pressure;Samples;Min_cycle;Max_cycle;Signal;HPM_P1;HPM_P2
2021/01/11 00:01:42;;;;;;;13.10;8.82;;;16.00;59.70;;;;;;4959197;28;20031;-64
2021/01/11 00:04:09;;;;;;;14.83;9.27;;;15.90;59.80;;;;;;4964216;28;20050;-61
2021/01/11 00:06:39;;;;;;;15.02;9.85;;;15.90;59.60;;;;;;4973702;28;20270;-63
2021/01/11 00:09:05;;;;;;;15.75;9.35;;;16.00;59.70;;;;;;4954682;28;20089;-66
2021/01/11 00:11:32;;;;;;;13.98;9.35;;;15.90;59.70;;;;;;4962285;28;20578;-66
2021/01/11 00:14:02;;;;;;;13.45;9.10;;;15.90;59.60;;;;;;4943354;28;20031;-64
2021/01/11 00:16:27;;;;;;;13.18;9.45;;;15.90;59.50;;;;;;4963456;28;20086;-64
2021/01/11 00:18:53;;;;;;;13.63;9.60;;;15.90;59.50;;;;;;4956407;28;20039;-62
2021/01/11 00:21:18;;;;;;;14.70;9.70;;;15.90;59.40;;;;;;4971434;28;20027;-63
2021/01/11 00:23:44;;;;;;;13.20;9.35;;;15.90;59.40;;;;;;4970816;28;20042;-65
2021/01/11 00:26:11;;;;;;;12.65;9.20;;;15.90;59.50;;;;;;4937718;28;20437;-64
2021/01/11 00:28:39;;;;;;;13.70;9.27;;;15.80;59.70;;;;;;4956057;28;20031;-64
2021/01/11 00:31:04;;;;;;;14.00;9.65;;;15.90;59.60;;;;;;4963403;28;20020;-64
2021/01/11 00:33:30;;;;;;;13.15;9.35;;;15.80;59.50;;;;;;4967835;28;20035;-63
2021/01/11 00:35:55;;;;;;;13.13;9.40;;;15.80;59.80;;;;;;4963623;28;20038;-64
2021/01/11 00:38:21;;;;;;;12.30;9.32;;;15.80;59.70;;;;;;4970935;28;20035;-63
2021/01/11 00:40:46;;;;;;;13.90;10.30;;;15.80;59.60;;;;;;4952853;28;20034;-62
2021/01/11 00:43:12;;;;;;;13.48;10.00;;;15.80;59.70;;;;;;4955813;28;20023;-62
2021/01/11 00:45:37;;;;;;;12.85;9.68;;;15.70;59.80;;;;;;4971418;28;20513;-65
2021/01/11 00:48:03;;;;;;;14.65;10.27;;;15.70;59.70;;;;;;4973001;28;20412;-64
2021/01/11 00:50:28;;;;;;;13.27;10.43;;;15.80;59.70;;;;;;4957882;28;20121;-64
2021/01/11 00:52:54;;;;;;;16.42;11.43;;;15.80;59.70;;;;;;4946056;28;20026;-63
2021/01/11 00:55:19;;;;;;;16.02;11.48;;;15.70;59.70;;;;;;4948080;29;20027;-65
2021/01/11 00:57:45;;;;;;;14.75;10.82;;;15.70;59.60;;;;;;4959145;28;20041;-65
2021/01/11 01:00:11;;;;;;;17.73;11.43;;;15.60;59.90;;;;;;4942071;29;20035;-65
2021/01/11 01:02:38;;;;;;;14.35;11.15;;;15.50;59.90;;;;;;4967485;28;20054;-65
2021/01/11 01:05:07;;;;;;;13.82;10.27;;;15.60;60.00;;;;;;4971982;28;20030;-64
2021/01/11 01:07:32;;;;;;;15.85;10.98;;;15.60;60.00;;;;;;4941771;29;20051;-64
2021/01/11 01:09:58;;;;;;;16.45;12.30;;;15.60;60.10;;;;;;4935820;29;20023;-65
2021/01/11 01:12:23;;;;;;;15.70;11.85;;;15.60;60.10;;;;;;4941342;28;20030;-62
2021/01/11 01:18:11;;;;;;;15.98;11.18;;;15.60;60.10;;;;;;4970451;28;20026;-63
2021/01/11 01:20:36;;;;;;;18.17;12.43;;;15.60;60.20;;;;;;4972261;28;20030;-63
2021/01/11 01:23:02;;;;;;;13.63;10.52;;;15.60;60.00;;;;;;4943058;28;20051;-63
2021/01/11 01:25:27;;;;;;;15.02;11.95;;;15.50;60.00;;;;;;4960124;28;20023;-63
2021/01/11 01:27:53;;;;;;;17.40;12.38;;;15.50;59.90;;;;;;4944026;28;20531;-64
2021/01/11 01:30:19;;;;;;;15.98;11.38;;;15.50;60.00;;;;;;4959340;28;20173;-64
2021/01/11 01:32:44;;;;;;;16.33;11.75;;;15.50;59.90;;;;;;4961324;28;20023;-62
2021/01/11 01:35:11;;;;;;;15.13;11.15;;;15.60;59.90;;;;;;4943334;29;20042;-64
2021/01/11 01:37:37;;;;;;;15.45;11.30;;;15.60;59.90;;;;;;4946477;28;20031;-63
2021/01/11 01:40:04;;;;;;;14.55;10.57;;;15.50;59.90;;;;;;4954153;28;20081;-62
2021/01/11 01:42:30;;;;;;;17.00;10.65;;;15.50;59.80;;;;;;4945141;28;20023;-63
2021/01/11 01:44:55;;;;;;;13.40;10.27;;;15.50;59.70;;;;;;4952162;28;20045;-63
2021/01/11 01:47:21;;;;;;;13.30;10.55;;;15.50;59.90;;;;;;4954187;28;20658;-63
2021/01/11 01:49:48;;;;;;;15.48;10.30;;;15.50;59.80;;;;;;4935244;29;20495;-63
2021/01/11 01:52:13;;;;;;;13.65;10.27;;;15.50;59.70;;;;;;4960549;28;20065;-62
2021/01/11 01:54:40;;;;;;;14.48;10.85;;;15.50;59.70;;;;;;4949789;29;20519;-64
2021/01/11 01:57:06;;;;;;;14.30;10.85;;;15.50;59.60;;;;;;4952417;29;20508;-63
2021/01/11 01:59:32;;;;;;;14.57;10.60;;;15.60;59.50;;;;;;4943049;28;20504;-63
2021/01/11 02:01:59;;;;;;;13.95;10.18;;;15.50;59.40;;;;;;4956095;28;20035;-63
2021/01/11 02:04:25;;;;;;;14.00;10.60;;;15.50;59.50;;;;;;4940497;29;20089;-66
2021/01/11 02:06:57;;;;;;;14.77;10.82;;;15.50;59.40;;;;;;4961685;28;20476;-64
2021/01/11 02:09:57;;;;;;;15.45;11.13;;;15.50;59.30;;;;;;4954086;28;20027;-64
2021/01/11 02:12:30;;;;;;;16.02;10.13;;;15.50;59.40;;;;;;4957689;28;20022;-62
2021/01/11 02:15:18;;;;;;;19.95;12.77;;;15.40;59.30;;;;;;4971663;28;20062;-64
2021/01/11 02:17:55;;;;;;;16.75;11.00;;;15.40;59.50;;;;;;4964518;28;20031;-63
2021/01/11 02:20:58;;;;;;;15.02;10.55;;;15.40;59.40;;;;;;4935027;29;20400;-64
2021/01/11 02:23:48;;;;;;;13.32;10.02;;;15.40;59.50;;;;;;4960408;28;20027;-64
2021/01/11 02:26:58;;;;;;;14.52;10.20;;;15.40;59.70;;;;;;4969179;28;20027;-62
2021/01/11 02:29:33;;;;;;;19.92;12.10;;;15.40;59.70;;;;;;4920550;29;20032;-65
2021/01/11 02:31:59;;;;;;;17.58;11.27;;;15.40;59.50;;;;;;4930229;29;20036;-64
2021/01/11 02:34:27;;;;;;;21.98;13.48;;;15.30;59.40;;;;;;4942263;29;20047;-64
2021/01/11 02:36:53;;;;;;;18.63;11.85;;;15.30;59.60;;;;;;4953518;28;20035;-63
2021/01/11 02:39:19;;;;;;;17.30;11.32;;;15.30;59.70;;;;;;4935289;28;20031;-64
2021/01/11 02:41:44;;;;;;;15.05;10.45;;;15.20;59.80;;;;;;4969405;28;20022;-65
2021/01/11 02:44:10;;;;;;;14.60;10.82;;;15.20;59.70;;;;;;4964279;28;20023;-65
2021/01/11 02:46:36;;;;;;;23.92;14.23;;;15.20;59.90;;;;;;4970584;28;20030;-63
2021/01/11 02:49:13;;;;;;;43.65;24.85;;;15.20;59.80;;;;;;4952240;29;20032;-65
2021/01/11 02:51:49;;;;;;;34.55;20.95;;;15.20;60.00;;;;;;4934643;29;20034;-65
2021/01/11 02:54:22;;;;;;;32.30;18.92;;;15.20;60.00;;;;;;4950219;28;20031;-63
2021/01/11 02:57:04;;;;;;;24.05;15.13;;;15.10;59.80;;;;;;4970882;28;20057;-64
2021/01/11 02:59:34;;;;;;;22.52;13.43;;;15.10;59.90;;;;;;4965156;28;20019;-64
2021/01/11 03:02:05;;;;;;;16.83;11.80;;;15.10;60.00;;;;;;4965955;28;20195;-62
2021/01/11 03:04:32;;;;;;;15.93;11.63;;;15.10;60.00;;;;;;4946762;28;20436;-63
2021/01/11 03:07:03;;;;;;;23.65;14.90;;;15.10;60.00;;;;;;4968224;28;20105;-64
2021/01/11 03:09:29;;;;;;;24.65;15.05;;;15.00;59.90;;;;;;4972667;28;20031;-65
2021/01/11 03:11:56;;;;;;;44.22;27.02;;;15.00;59.90;;;;;;4974289;28;20027;-63
2021/01/11 03:14:22;;;;;;;134.80;76.03;;;15.00;60.30;;;;;;4973299;28;20027;-64
2021/01/11 03:16:48;;;;;;;149.95;87.80;;;15.00;60.10;;;;;;4957139;28;20154;-66
2021/01/11 03:19:14;;;;;;;94.38;53.50;;;15.00;60.20;;;;;;4963901;28;20040;-63
2021/01/11 03:21:42;;;;;;;82.88;49.17;;;15.00;60.20;;;;;;4937821;29;20051;-65
2021/01/11 03:24:08;;;;;;;64.93;38.13;;;15.00;60.10;;;;;;4938382;28;20031;-63
2021/01/11 03:26:34;;;;;;;43.85;27.33;;;15.00;60.20;;;;;;4948486;28;20029;-64
2021/01/11 03:29:00;;;;;;;68.70;39.03;;;15.00;60.30;;;;;;4961780;28;20039;-64
2021/01/11 03:31:26;;;;;;;74.95;40.60;;;15.00;60.30;;;;;;4968008;28;20034;-65
2021/01/11 03:33:51;;;;;;;75.90;41.35;;;14.90;60.40;;;;;;4974713;28;20538;-65
2021/01/11 03:36:18;;;;;;;57.33;33.88;;;14.90;60.10;;;;;;4972808;28;20038;-64
2021/01/11 03:38:43;;;;;;;47.63;28.42;;;14.90;60.00;;;;;;4954705;28;20030;-66
2021/01/11 03:41:09;;;;;;;149.15;81.85;;;14.90;60.10;;;;;;4966034;28;20027;-65
2021/01/11 03:43:39;;;;;;;184.05;95.53;;;14.90;60.10;;;;;;4982680;28;20035;-63
2021/01/11 03:46:07;;;;;;;130.77;71.60;;;14.90;60.10;;;;;;4985331;28;20039;-65
2021/01/11 03:48:33;;;;;;;79.85;47.03;;;14.90;60.10;;;;;;4967347;28;20073;-64
2021/01/11 03:50:59;;;;;;;65.43;38.47;;;14.90;60.30;;;;;;4965876;29;20031;-64
2021/01/11 03:53:25;;;;;;;205.05;101.90;;;14.90;60.30;;;;;;4939261;28;20027;-64
2021/01/11 03:55:51;;;;;;;151.23;75.10;;;14.90;60.50;;;;;;4972371;28;20027;-64
2021/01/11 03:58:16;;;;;;;134.90;68.65;;;14.80;60.20;;;;;;4974155;28;20081;-62
2021/01/11 04:00:42;;;;;;;96.60;50.28;;;14.80;60.40;;;;;;4957009;28;20066;-64
2021/01/11 04:03:07;;;;;;;287.90;143.65;;;14.80;60.40;;;;;;4954710;28;20033;-64
2021/01/11 04:05:34;;;;;;;274.10;136.73;;;14.80;60.40;;;;;;4946422;28;20378;-66
2021/01/11 04:08:02;;;;;;;127.00;66.10;;;14.80;60.30;;;;;;4937807;29;20118;-64
2021/01/11 04:10:28;;;;;;;109.80;55.15;;;14.80;60.50;;;;;;4941115;29;20034;-65
2021/01/11 04:12:53;;;;;;;90.03;48.83;;;14.80;60.40;;;;;;4959979;28;20023;-64
2021/01/11 04:15:22;;;;;;;101.75;54.35;;;14.80;60.40;;;;;;4969856;28;20042;-65
2021/01/11 04:17:50;;;;;;;143.38;78.88;;;14.70;60.40;;;;;;4955167;28;20569;-63
2021/01/11 04:20:57;;;;;;;177.68;95.30;;;14.70;60.40;;;;;;4950160;28;20042;-63
2021/01/11 04:23:22;;;;;;;200.13;106.82;;;14.70;60.50;;;;;;4975375;28;20038;-62
2021/01/11 04:25:48;;;;;;;153.73;82.50;;;14.80;60.40;;;;;;4971194;28;20093;-63
2021/01/11 04:28:13;;;;;;;142.20;76.90;;;14.70;60.50;;;;;;4936951;29;20397;-65
2021/01/11 04:30:39;;;;;;;213.02;108.72;;;14.70;60.40;;;;;;4969652;28;20560;-64
2021/01/11 04:33:04;;;;;;;230.43;116.90;;;14.70;60.10;;;;;;4955681;28;20070;-65
2021/01/11 04:35:30;;;;;;;204.93;105.35;;;14.70;60.10;;;;;;4937575;29;20035;-65
2021/01/11 04:37:57;;;;;;;186.18;96.50;;;14.70;60.20;;;;;;4964085;28;20480;-65
2021/01/11 04:40:23;;;;;;;159.30;82.57;;;14.70;60.20;;;;;;4949862;28;20089;-65
2021/01/11 04:46:13;;;;;;;199.07;112.88;;;14.70;60.40;;;;;;4969424;28;20384;-64
2021/01/11 04:48:41;;;;;;;174.00;97.95;;;14.70;60.40;;;;;;4972367;28;20023;-64
2021/01/11 04:51:06;;;;;;;169.45;100.25;;;14.60;60.20;;;;;;4972704;28;20018;-64
2021/01/11 04:53:34;;;;;;;183.68;112.22;;;14.60;60.30;;;;;;4959684;28;20429;-65
2021/01/11 04:56:01;;;;;;;204.27;120.45;;;14.60;60.20;;;;;;4959443;28;20023;-65
2021/01/11 04:58:55;;;;;;;154.98;94.72;;;14.60;60.10;;;;;;4947609;28;20528;-63
2021/01/11 05:01:25;;;;;;;144.80;85.20;;;14.60;60.60;;;;;;4963662;28;20023;-65
2021/01/11 05:03:51;;;;;;;133.18;77.05;;;14.60;60.30;;;;;;4936060;29;20118;-64
2021/01/11 05:06:18;;;;;;;165.23;101.03;;;14.60;60.30;;;;;;4950784;28;20110;-64
2021/01/11 05:08:44;;;;;;;127.07;74.35;;;14.60;60.20;;;;;;4953550;29;20685;-65
2021/01/11 05:11:10;;;;;;;130.68;74.65;;;14.60;60.10;;;;;;4967277;28;20030;-64
2021/01/11 05:13:36;;;;;;;149.77;92.22;;;14.60;59.90;;;;;;4955315;28;20110;-63
2021/01/11 05:16:10;;;;;;;124.90;73.47;;;14.60;60.00;;;;;;4959326;28;20025;-65
2021/01/11 05:18:36;;;;;;;127.82;73.03;;;14.60;59.80;;;;;;4943737;28;20578;-62
2021/01/11 05:21:02;;;;;;;256.83;149.38;;;14.50;60.30;;;;;;4951142;28;20066;-64
2021/01/11 05:23:37;;;;;;;200.20;120.90;;;14.50;60.60;;;;;;4964796;28;20119;-63
2021/01/11 05:26:14;;;;;;;203.23;121.68;;;14.60;60.00;;;;;;4969091;28;20081;-64
2021/01/11 05:28:41;;;;;;;195.75;115.43;;;14.60;60.40;;;;;;4953081;28;20117;-64
2021/01/11 05:31:06;;;;;;;146.43;89.40;;;14.60;59.90;;;;;;4935587;29;20032;-63
2021/01/11 05:33:32;;;;;;;136.48;81.38;;;14.70;59.50;;;;;;4952606;28;20653;-62
2021/01/11 05:36:10;;;;;;;120.00;72.55;;;14.60;59.70;;;;;;4951527;28;20069;-64
2021/01/11 05:38:39;;;;;;;122.95;70.10;;;14.60;59.70;;;;;;4956781;28;20086;-64
2021/01/11 05:41:23;;;;;;;112.55;66.15;;;14.80;58.90;;;;;;4941770;28;20113;-64
2021/01/11 05:44:12;;;;;;;107.95;65.32;;;15.00;58.30;;;;;;4971632;28;20023;-64
2021/01/11 05:46:38;;;;;;;110.38;62.42;;;15.10;58.00;;;;;;4965271;28;20519;-63
2021/01/11 05:49:09;;;;;;;96.65;59.60;;;15.20;57.70;;;;;;4952704;29;20044;-64
2021/01/11 05:51:35;;;;;;;97.90;57.97;;;15.20;57.60;;;;;;4943285;28;20026;-64
2021/01/11 05:54:01;;;;;;;94.25;54.78;;;15.30;57.20;;;;;;4971800;28;20086;-65
2021/01/11 05:56:27;;;;;;;94.18;55.15;;;15.40;57.00;;;;;;4952928;28;20464;-64
2021/01/11 05:59:08;;;;;;;91.68;52.70;;;15.30;57.10;;;;;;4971800;28;20031;-66
2021/01/11 06:01:36;;;;;;;95.20;52.35;;;15.30;57.40;;;;;;4969560;28;20110;-65
2021/01/11 06:04:04;;;;;;;86.90;50.42;;;15.20;57.90;;;;;;4952502;29;20023;-62
2021/01/11 06:06:30;;;;;;;91.22;50.50;;;15.20;58.10;;;;;;4942533;28;20500;-64
2021/01/11 06:08:55;;;;;;;90.38;48.05;;;15.20;58.10;;;;;;4954459;28;20031;-65
2021/01/11 06:11:26;;;;;;;90.72;54.15;;;15.30;58.20;;;;;;4967406;28;20037;-64
2021/01/11 06:13:54;;;;;;;95.22;57.10;;;15.40;57.90;;;;;;4969683;28;20019;-64
2021/01/11 06:16:21;;;;;;;88.07;49.80;;;15.30;57.80;;;;;;4971770;28;20059;-62
2021/01/11 06:18:51;;;;;;;80.55;45.17;;;15.40;57.90;;;;;;4971488;28;20034;-65
2021/01/11 06:21:18;;;;;;;74.57;44.15;;;15.40;57.90;;;;;;4970557;28;20158;-62
2021/01/11 06:23:44;;;;;;;76.72;42.17;;;15.30;57.90;;;;;;4953197;28;20030;-64
2021/01/11 06:26:24;;;;;;;70.35;41.33;;;15.30;59.30;;;;;;4969689;28;20030;-61
2021/01/11 06:28:50;;;;;;;73.13;40.67;;;15.40;58.30;;;;;;4952296;29;20099;-63
2021/01/11 06:31:15;;;;;;;69.45;40.03;;;15.30;58.60;;;;;;4972800;28;20066;-63
2021/01/11 06:33:42;;;;;;;73.38;39.72;;;15.30;58.50;;;;;;4974891;28;20034;-66
2021/01/11 06:36:22;;;;;;;62.60;38.10;;;15.30;58.40;;;;;;4971486;28;20042;-65
2021/01/11 06:38:48;;;;;;;77.15;46.08;;;15.20;58.20;;;;;;4971647;28;20396;-65
2021/01/11 06:41:19;;;;;;;69.93;41.53;;;15.20;58.50;;;;;;4965522;28;20034;-65
2021/01/11 06:43:47;;;;;;;62.45;37.25;;;15.20;58.30;;;;;;4969972;28;20023;-64
2021/01/11 06:46:34;;;;;;;56.25;37.08;;;15.20;58.20;;;;;;4957739;28;20381;-64
2021/01/11 06:49:04;;;;;;;56.20;34.85;;;15.10;58.20;;;;;;4963765;28;20123;-62
2021/01/11 06:51:41;;;;;;;55.00;35.78;;;15.10;58.30;;;;;;4994181;28;20030;-65
2021/01/11 06:54:17;;;;;;;57.38;34.25;;;15.10;58.30;;;;;;4994516;28;20029;-63
2021/01/11 06:56:44;;;;;;;53.88;32.90;;;15.10;58.30;;;;;;4994208;28;20098;-63
2021/01/11 06:59:17;;;;;;;55.42;33.65;;;15.10;58.20;;;;;;4969024;28;20081;-63
2021/01/11 07:01:45;;;;;;;52.65;33.15;;;15.00;58.30;;;;;;4962363;28;20134;-63
2021/01/11 07:04:34;;;;;;;56.17;35.55;;;15.00;58.20;;;;;;4974862;28;20023;-66
2021/01/11 07:07:00;;;;;;;58.88;37.22;;;14.90;58.40;;;;;;4971374;28;20401;-64
2021/01/11 07:09:26;;;;;;;51.33;34.47;;;15.00;58.30;;;;;;4960350;28;20480;-64
2021/01/11 07:11:52;;;;;;;50.75;32.35;;;14.90;58.20;;;;;;4943615;28;20045;-63
2021/01/11 07:14:22;;;;;;;42.25;28.90;;;14.90;58.20;;;;;;4968659;28;20019;-63
2021/01/11 07:16:55;;;;;;;58.22;30.70;;;14.90;58.30;;;;;;4947421;28;20090;-63
2021/01/11 07:19:22;;;;;;;47.47;29.83;;;14.90;58.30;;;;;;4971571;28;20073;-63
2021/01/11 07:21:49;;;;;;;47.90;29.13;;;14.80;58.40;;;;;;4965377;28;20030;-64
2021/01/11 07:24:15;;;;;;;62.72;41.03;;;14.90;58.50;;;;;;4973783;28;20110;-64
2021/01/11 07:26:40;;;;;;;49.53;32.00;;;14.90;58.40;;;;;;4973262;28;20114;-62
2021/01/11 07:29:08;;;;;;;45.53;30.13;;;14.80;58.30;;;;;;4957500;28;20030;-63
2021/01/11 07:31:41;;;;;;;99.95;60.63;;;14.80;58.50;;;;;;4959876;28;20492;-63
2021/01/11 07:34:11;;;;;;;64.70;40.53;;;14.80;58.60;;;;;;4971988;28;20035;-65
2021/01/11 07:36:47;;;;;;;163.82;91.63;;;14.80;58.50;;;;;;4973303;28;20054;-62
2021/01/11 07:39:21;;;;;;;67.65;40.42;;;14.80;58.70;;;;;;4971791;28;20675;-61
2021/01/11 07:41:51;;;;;;;54.20;33.58;;;14.80;58.40;;;;;;4972300;28;20027;-65
2021/01/11 07:44:22;;;;;;;125.95;86.18;;;14.80;58.50;;;;;;4970597;28;20038;-71
2021/01/11 07:46:52;;;;;;;145.45;102.97;;;14.80;58.70;;;;;;4974003;28;20480;-63
2021/01/11 07:49:18;;;;;;;82.85;53.35;;;14.90;58.80;;;;;;4963266;28;20030;-65
2021/01/11 07:51:48;;;;;;;65.07;42.45;;;14.90;58.50;;;;;;4963374;28;20031;-64
2021/01/11 07:54:17;;;;;;;55.55;37.20;;;14.80;58.40;;;;;;4947755;28;20022;-64
2021/01/11 07:56:43;;;;;;;51.60;35.45;;;14.90;58.30;;;;;;4945162;28;20035;-63
2021/01/11 07:59:09;;;;;;;49.55;33.33;;;14.80;58.50;;;;;;4959941;28;20803;-64
2021/01/11 08:01:40;;;;;;;47.78;32.38;;;14.90;58.50;;;;;;4967772;28;20026;-63
2021/01/11 08:04:06;;;;;;;51.73;31.70;;;14.80;58.50;;;;;;4946689;28;20038;-63
2021/01/11 08:06:50;;;;;;;42.95;29.92;;;14.80;58.60;;;;;;4966959;28;20030;-64
2021/01/11 08:09:27;;;;;;;41.55;29.67;;;14.80;58.60;;;;;;4940118;28;20167;-64
2021/01/11 08:12:11;;;;;;;41.58;28.35;;;14.80;59.00;;;;;;4949824;28;20042;-64
2021/01/11 08:14:39;;;;;;;42.88;28.35;;;14.90;58.80;;;;;;4950707;28;20031;-64
2021/01/11 08:17:06;;;;;;;43.20;27.10;;;14.90;58.70;;;;;;4973856;28;20579;-62
2021/01/11 08:19:32;;;;;;;40.10;26.55;;;14.90;58.90;;;;;;4967227;28;20582;-64
2021/01/11 08:21:59;;;;;;;42.60;25.27;;;14.80;58.70;;;;;;4951105;28;20042;-63
2021/01/11 08:24:25;;;;;;;37.58;25.30;;;14.90;58.60;;;;;;4966650;28;20031;-64
2021/01/11 08:26:57;;;;;;;35.40;25.25;;;15.00;58.50;;;;;;4962160;28;20600;-62
2021/01/11 08:29:23;;;;;;;37.53;24.38;;;14.90;58.40;;;;;;4965137;28;20081;-64
2021/01/11 08:31:49;;;;;;;33.03;22.88;;;14.90;58.10;;;;;;4948567;28;20039;-63
2021/01/11 08:34:14;;;;;;;33.15;22.50;;;14.90;58.00;;;;;;4967769;28;20018;-62
2021/01/11 08:36:40;;;;;;;32.50;22.83;;;14.90;57.90;;;;;;4967305;28;20062;-63
2021/01/11 08:39:07;;;;;;;34.53;21.58;;;15.00;57.70;;;;;;4972112;28;20392;-63
2021/01/11 08:41:34;;;;;;;41.40;28.65;;;15.00;57.70;;;;;;4956712;28;20105;-63
2021/01/11 08:44:00;;;;;;;37.50;26.50;;;15.00;57.80;;;;;;4965454;28;20023;-62
2021/01/11 08:46:52;;;;;;;35.15;23.70;;;15.00;57.90;;;;;;4978847;28;20070;-63
2021/01/11 08:49:18;;;;;;;33.55;21.98;;;15.00;58.10;;;;;;4957403;28;20307;-63
2021/01/11 08:51:45;;;;;;;29.15;20.33;;;15.10;58.30;;;;;;4974203;28;20046;-62
2021/01/11 08:54:23;;;;;;;30.52;21.10;;;15.10;58.20;;;;;;4959012;28;20077;-63
2021/01/11 08:56:48;;;;;;;32.20;19.13;;;15.10;58.10;;;;;;4967787;28;20034;-63
2021/01/11 08:59:17;;;;;;;27.40;19.10;;;15.10;57.80;;;;;;4980418;28;20109;-63
2021/01/11 09:01:44;;;;;;;28.77;18.58;;;15.10;58.00;;;;;;4978144;28;20023;-63
2021/01/11 09:04:11;;;;;;;28.40;19.27;;;15.10;58.20;;;;;;4959213;28;20030;-62
2021/01/11 09:06:44;;;;;;;25.13;17.55;;;15.10;58.00;;;;;;4976671;28;20476;-62
2021/01/11 09:09:11;;;;;;;30.40;18.30;;;15.10;58.20;;;;;;4976400;28;20218;-62
2021/01/11 09:11:39;;;;;;;23.52;16.58;;;15.10;58.20;;;;;;4953180;28;20078;-62
2021/01/11 09:14:08;;;;;;;24.10;16.77;;;15.10;58.10;;;;;;4964213;28;20027;-63
2021/01/11 09:16:34;;;;;;;38.92;26.20;;;15.10;58.20;;;;;;4967465;28;20088;-62
2021/01/11 09:19:05;;;;;;;31.05;21.58;;;15.10;58.10;;;;;;4984697;28;20022;-63
2021/01/11 09:21:31;;;;;;;30.83;21.25;;;15.10;58.20;;;;;;4985565;28;20114;-66
2021/01/11 09:23:57;;;;;;;31.42;20.27;;;15.10;58.40;;;;;;4980370;28;20138;-63
2021/01/11 09:26:22;;;;;;;29.23;18.85;;;15.20;58.40;;;;;;4950563;28;20054;-62
2021/01/11 09:28:48;;;;;;;41.35;36.80;;;15.20;58.20;;;;;;4945991;28;20427;-63
2021/01/11 09:31:13;;;;;;;31.60;24.30;;;15.20;58.10;;;;;;4966365;28;20527;-62
2021/01/11 09:33:39;;;;;;;27.00;20.23;;;15.20;58.20;;;;;;4964613;28;20023;-63
2021/01/11 09:36:04;;;;;;;27.50;17.95;;;15.20;58.30;;;;;;4949137;28;20031;-65
2021/01/11 09:38:30;;;;;;;24.42;17.45;;;15.20;58.20;;;;;;4966998;28;20076;-63
2021/01/11 09:40:55;;;;;;;22.08;16.08;;;15.20;58.30;;;;;;4964072;28;20026;-63
2021/01/11 09:43:21;;;;;;;23.50;17.00;;;15.20;58.20;;;;;;4960013;28;20015;-62
2021/01/11 09:45:46;;;;;;;21.85;15.52;;;15.20;58.10;;;;;;4965943;28;20049;-62
2021/01/11 09:48:12;;;;;;;20.45;14.48;;;15.20;58.20;;;;;;4969609;28;20467;-63
2021/01/11 09:50:39;;;;;;;21.63;15.35;;;15.20;58.20;;;;;;4965774;28;20104;-63
2021/01/11 09:53:07;;;;;;;21.00;14.52;;;15.20;58.30;;;;;;4965115;28;20033;-62
2021/01/11 09:55:35;;;;;;;21.73;14.85;;;15.10;58.20;;;;;;4966266;28;20137;-63
2021/01/11 09:58:02;;;;;;;23.30;14.63;;;15.20;58.60;;;;;;4966956;28;20034;-63
2021/01/11 10:00:28;;;;;;;20.60;13.80;;;15.20;58.50;;;;;;4940244;29;20027;-62
2021/01/11 10:02:53;;;;;;;18.58;12.63;;;15.20;58.40;;;;;;4947529;28;20035;-62
2021/01/11 10:05:20;;;;;;;20.75;13.27;;;15.20;58.40;;;;;;4952777;28;20081;-63
2021/01/11 10:07:46;;;;;;;21.10;13.30;;;15.20;58.30;;;;;;4949729;28;20018;-62
2021/01/11 10:10:14;;;;;;;19.58;12.43;;;15.20;58.30;;;;;;4948705;28;20037;-62
2021/01/11 10:12:40;;;;;;;19.95;13.10;;;15.20;58.20;;;;;;4950984;28;20035;-63
2021/01/11 10:15:06;;;;;;;18.92;12.52;;;15.20;58.20;;;;;;4965230;28;20093;-64
2021/01/11 10:17:32;;;;;;;17.80;11.85;;;15.30;58.00;;;;;;4942624;28;20051;-63
2021/01/11 10:19:57;;;;;;;16.30;11.25;;;15.30;57.90;;;;;;4973026;28;20046;-63
2021/01/11 10:22:23;;;;;;;16.52;11.20;;;15.30;58.00;;;;;;4951356;28;20034;-63
2021/01/11 10:24:50;;;;;;;17.05;11.23;;;15.30;57.80;;;;;;4969062;28;20041;-62
2021/01/11 10:27:18;;;;;;;16.70;11.50;;;15.40;57.80;;;;;;4967386;28;20037;-63
2021/01/11 10:29:44;;;;;;;14.15;10.38;;;15.40;57.70;;;;;;4953091;28;20035;-62
2021/01/11 10:32:10;;;;;;;17.00;11.45;;;15.40;57.80;;;;;;4959685;28;20039;-63
2021/01/11 10:34:35;;;;;;;15.70;10.75;;;15.40;57.70;;;;;;4943005;29;20448;-63
2021/01/11 10:37:01;;;;;;;15.52;10.13;;;15.40;57.70;;;;;;4950627;29;20522;-64
2021/01/11 10:39:27;;;;;;;14.77;9.70;;;15.40;57.70;;;;;;4981290;28;20034;-64
2021/01/11 10:41:53;;;;;;;13.90;9.77;;;15.40;57.80;;;;;;4975515;28;20037;-64
2021/01/11 10:44:20;;;;;;;16.33;9.93;;;15.40;57.80;;;;;;4955823;28;20050;-62
2021/01/11 10:46:46;;;;;;;32.35;29.15;;;15.30;57.80;;;;;;4969169;28;20380;-62
2021/01/11 10:49:11;;;;;;;18.83;11.65;;;15.30;57.90;;;;;;4969811;28;20027;-63
2021/01/11 10:51:37;;;;;;;16.63;10.88;;;15.30;57.80;;;;;;4964893;28;20095;-63
2021/01/11 10:54:04;;;;;;;17.60;11.05;;;15.40;57.80;;;;;;4951075;28;20730;-70
2021/01/11 10:56:29;;;;;;;18.75;10.10;;;15.40;58.80;;;;;;4961992;28;20042;-63
2021/01/11 10:58:55;;;;;;;16.77;9.90;;;15.50;58.50;;;;;;4977837;28;20105;-63
2021/01/11 11:01:21;;;;;;;17.67;9.75;;;15.50;59.00;;;;;;4969691;28;20023;-64
2021/01/11 11:03:46;;;;;;;21.00;10.05;;;15.50;58.60;;;;;;4947380;28;20034;-63
2021/01/11 11:06:13;;;;;;;20.98;9.93;;;15.50;58.50;;;;;;4957941;28;20133;-62
2021/01/11 11:08:40;;;;;;;16.70;9.32;;;15.60;59.30;;;;;;4943704;28;20050;-62
2021/01/11 11:11:05;;;;;;;15.48;9.18;;;15.70;59.40;;;;;;4972110;28;20109;-64
2021/01/11 11:13:32;;;;;;;14.82;8.90;;;15.70;59.20;;;;;;4968073;28;20113;-64
2021/01/11 11:15:58;;;;;;;20.67;9.27;;;15.80;59.10;;;;;;4956453;28;20511;-62
2021/01/11 11:18:23;;;;;;;16.17;8.73;;;15.80;59.20;;;;;;4969245;28;20035;-63
2021/01/11 11:20:49;;;;;;;17.42;9.25;;;15.80;59.70;;;;;;4968285;28;20166;-65
2021/01/11 11:23:17;;;;;;;16.85;8.63;;;15.70;59.40;;;;;;4965024;28;20031;-63
2021/01/11 11:25:44;;;;;;;16.60;8.85;;;15.70;59.10;;;;;;4980466;28;20403;-62
2021/01/11 11:28:10;;;;;;;16.58;8.55;;;15.70;59.20;;;;;;4984807;28;20026;-64
2021/01/11 11:30:35;;;;;;;15.77;8.20;;;15.70;58.90;;;;;;4981486;28;20034;-64
2021/01/11 11:33:01;;;;;;;14.48;8.65;;;15.70;59.30;;;;;;4957957;28;20035;-64
2021/01/11 11:35:26;;;;;;;13.35;7.60;;;15.70;59.10;;;;;;4976619;28;20049;-63
2021/01/11 11:37:52;;;;;;;31.45;22.85;;;15.70;59.70;;;;;;4971111;28;20086;-63
2021/01/11 11:40:19;;;;;;;32.42;24.13;;;15.60;59.10;;;;;;4949913;29;20257;-64
2021/01/11 11:42:44;;;;;;;24.27;15.95;;;15.60;58.50;;;;;;4931928;29;20102;-63
2021/01/11 11:45:12;;;;;;;19.17;12.48;;;15.50;58.70;;;;;;4956892;28;20294;-63
2021/01/11 11:47:39;;;;;;;16.85;10.68;;;15.50;58.70;;;;;;4957748;28;20026;-63
2021/01/11 11:50:11;;;;;;;14.95;9.30;;;15.50;58.50;;;;;;4969303;28;20158;-63
2021/01/11 11:52:37;;;;;;;15.25;9.38;;;15.40;58.40;;;;;;4967530;28;20030;-62
2021/01/11 11:55:05;;;;;;;14.93;9.85;;;15.40;58.50;;;;;;4968942;28;20075;-63
2021/01/11 11:57:30;;;;;;;13.18;8.48;;;15.40;58.30;;;;;;4968515;28;20496;-62
2021/01/11 11:59:56;;;;;;;13.50;8.15;;;15.40;58.40;;;;;;4968355;28;20046;-62
2021/01/11 12:02:21;;;;;;;13.73;8.05;;;15.40;58.30;;;;;;4968148;28;20031;-63
2021/01/11 12:04:47;;;;;;;14.10;7.80;;;15.40;58.10;;;;;;4968595;28;20484;-62
2021/01/11 12:07:13;;;;;;;12.70;8.23;;;15.40;58.20;;;;;;4968380;28;20029;-65
2021/01/11 12:09:40;;;;;;;13.18;8.20;;;15.50;58.00;;;;;;4968279;28;20082;-63
2021/01/11 12:12:05;;;;;;;13.43;7.55;;;15.50;58.00;;;;;;4965677;28;20676;-63
2021/01/11 12:14:31;;;;;;;14.35;7.72;;;15.40;58.30;;;;;;4952582;28;20046;-63
2021/01/11 12:16:56;;;;;;;12.05;7.50;;;15.50;57.90;;;;;;4947027;28;20800;-62
2021/01/11 12:19:22;;;;;;;14.45;7.63;;;15.60;57.90;;;;;;4941053;28;20611;-65
2021/01/11 12:21:47;;;;;;;13.13;7.60;;;15.50;58.20;;;;;;4979404;28;20104;-63
2021/01/11 12:24:13;;;;;;;11.50;7.15;;;15.60;58.30;;;;;;4946111;28;20462;-64
2021/01/11 12:26:47;;;;;;;12.20;7.35;;;15.50;58.40;;;;;;4986882;28;20372;-63
2021/01/11 12:29:13;;;;;;;12.20;7.60;;;15.60;58.40;;;;;;4957885;28;20037;-63
2021/01/11 12:31:40;;;;;;;16.63;7.25;;;15.60;58.40;;;;;;4957761;28;20484;-63
2021/01/11 12:34:06;;;;;;;11.07;6.88;;;15.50;58.30;;;;;;4954012;28;20057;-62
2021/01/11 12:36:33;;;;;;;11.13;6.82;;;15.50;58.70;;;;;;4982945;28;20040;-63
2021/01/11 12:39:00;;;;;;;11.07;6.35;;;15.50;58.60;;;;;;4948832;28;20035;-63